createdAt,value
2022-08-11T00:02:01.236Z,25.26
2022-08-11T00:04:37.146Z,25.23
2022-08-11T00:07:06.863Z,25.13
2022-08-11T00:09:39.328Z,25.11
2022-08-11T00:12:17.148Z,25.10
2022-08-11T00:14:46.373Z,25.04
2022-08-11T00:17:16.045Z,24.98
2022-08-11T00:20:12.863Z,24.98
2022-08-11T00:22:42.253Z,24.96
2022-08-11T00:25:20.409Z,24.98
2022-08-11T00:27:49.435Z,24.96
2022-08-11T00:30:17.437Z,24.92
2022-08-11T00:32:56.123Z,24.89
2022-08-11T00:35:55.701Z,24.80
2022-08-11T00:38:26.361Z,24.76
2022-08-11T00:41:01.528Z,24.72
2022-08-11T00:43:51.952Z,24.70
2022-08-11T00:47:05.489Z,24.63
2022-08-11T00:50:03.608Z,24.56
2022-08-11T00:53:29.557Z,24.54
2022-08-11T00:56:43.580Z,24.51
2022-08-11T01:00:16.355Z,24.49
2022-08-11T01:03:53.926Z,24.45
2022-08-11T01:06:58.481Z,24.39
2022-08-11T01:10:01.628Z,24.37
2022-08-11T01:13:15.565Z,24.35
2022-08-11T01:16:13.139Z,24.33
2022-08-11T01:19:05.922Z,24.31
2022-08-11T01:22:03.788Z,24.35
2022-08-11T01:25:01.908Z,24.30
2022-08-11T01:28:41.643Z,24.34
2022-08-11T01:31:33.424Z,24.36
2022-08-11T01:34:27.147Z,24.32
2022-08-11T01:37:52.465Z,24.33
2022-08-11T01:41:09.802Z,24.29
2022-08-11T01:44:17.333Z,24.23
2022-08-11T01:47:09.016Z,24.25
2022-08-11T01:50:10.639Z,24.21
2022-08-11T01:53:28.602Z,24.12
2022-08-11T01:56:26.471Z,24.07
2022-08-11T01:59:08.193Z,24.01
2022-08-11T02:02:47.433Z,23.93
2022-08-11T02:06:01.276Z,23.90
2022-08-11T02:08:50.670Z,23.90
2022-08-11T02:11:35.195Z,23.86
2022-08-11T02:14:21.409Z,23.78
2022-08-11T02:17:38.602Z,23.78
2022-08-11T02:20:44.066Z,23.79
2022-08-11T02:24:05.449Z,23.87
2022-08-11T02:27:02.627Z,23.79
2022-08-11T02:30:21.737Z,23.66
2022-08-11T02:33:23.083Z,23.63
2022-08-11T02:36:34.952Z,23.69
2022-08-11T02:39:13.296Z,23.60
2022-08-11T02:42:42.445Z,23.60
2022-08-11T02:45:31.106Z,23.58
2022-08-11T02:48:35.094Z,23.55
2022-08-11T02:51:14.118Z,23.57
2022-08-11T02:54:22.739Z,23.52
2022-08-11T03:00:42.401Z,23.51
2022-08-11T03:03:33.158Z,23.44
2022-08-11T03:06:39.234Z,23.35
2022-08-11T03:10:10.716Z,23.31
2022-08-11T03:13:35.318Z,23.33
2022-08-11T03:16:48.343Z,23.37
2022-08-11T03:20:43.707Z,23.28
2022-08-11T03:23:56.273Z,23.29
2022-08-11T03:26:38.605Z,23.26
2022-08-11T03:30:08.891Z,23.21
2022-08-11T03:33:41.701Z,23.22
2022-08-11T03:36:27.870Z,23.10
2022-08-11T03:39:19.957Z,23.06
2022-08-11T03:42:41.446Z,23.11
2022-08-11T03:45:28.556Z,23.13
2022-08-11T03:48:53.707Z,23.04
2022-08-11T03:52:07.853Z,22.98
2022-08-11T03:55:40.485Z,22.90
2022-08-11T03:58:42.078Z,22.97
2022-08-11T04:02:03.164Z,22.97
2022-08-11T04:05:11.299Z,22.99
2022-08-11T04:08:53.793Z,22.92
2022-08-11T04:12:35.821Z,22.86
2022-08-11T04:15:32.766Z,22.79
2022-08-11T04:18:47.536Z,22.78
2022-08-11T04:21:35.992Z,22.78
2022-08-11T04:25:08.237Z,22.83
2022-08-11T04:28:50.155Z,22.84
2022-08-11T04:31:48.816Z,22.76
2022-08-11T04:35:05.849Z,22.75
2022-08-11T04:37:43.868Z,22.73
2022-08-11T04:40:40.337Z,22.75
2022-08-11T04:44:06.772Z,22.75
2022-08-11T04:48:01.772Z,22.80
2022-08-11T04:51:39.509Z,22.85
2022-08-11T04:55:09.929Z,22.88
2022-08-11T04:58:35.684Z,22.91
2022-08-11T05:02:17.023Z,23.01
2022-08-11T05:05:37.418Z,23.00
2022-08-11T05:08:55.486Z,23.02
2022-08-11T05:12:10.036Z,23.04
2022-08-11T05:15:11.326Z,23.03
2022-08-11T05:18:37.510Z,23.12
2022-08-11T05:21:44.394Z,23.06
2022-08-11T05:24:49.949Z,23.10
2022-08-11T05:27:38.081Z,23.17
2022-08-11T05:30:27.236Z,23.19
2022-08-11T05:33:30.701Z,23.19
2022-08-11T05:36:13.053Z,23.21
2022-08-11T05:38:59.099Z,23.16
2022-08-11T05:41:48.300Z,23.23
2022-08-11T05:44:39.365Z,23.25
2022-08-11T05:47:26.149Z,23.31
2022-08-11T05:50:13.764Z,23.36
2022-08-11T05:53:09.332Z,23.43
2022-08-11T05:56:04.003Z,23.44
2022-08-11T05:58:47.482Z,23.44
2022-08-11T06:01:32.336Z,23.44
2022-08-11T06:04:16.181Z,23.43
2022-08-11T06:07:09.498Z,23.43
2022-08-11T06:09:51.387Z,23.34
2022-08-11T06:12:33.474Z,23.44
2022-08-11T06:15:13.096Z,23.50
2022-08-11T06:17:49.165Z,23.57
2022-08-11T06:20:18.633Z,23.71
2022-08-11T06:22:55.318Z,23.76
2022-08-11T06:25:30.598Z,23.81
2022-08-11T06:27:59.015Z,23.90
2022-08-11T06:30:45.879Z,23.98
2022-08-11T06:33:43.886Z,24.17
2022-08-11T06:36:54.538Z,24.29
2022-08-11T06:40:05.463Z,24.32
2022-08-11T06:42:55.031Z,24.42
2022-08-11T06:45:37.578Z,24.33
2022-08-11T06:48:10.113Z,24.33
2022-08-11T06:50:56.662Z,24.16
2022-08-11T06:53:24.274Z,24.15
2022-08-11T06:56:10.385Z,24.13
2022-08-11T06:59:00.483Z,24.09
2022-08-11T07:01:54.563Z,24.00
2022-08-11T07:04:41.693Z,24.14
2022-08-11T07:08:34.694Z,24.28
2022-08-11T07:12:09.212Z,24.50
2022-08-11T07:15:12.616Z,24.63
2022-08-11T07:18:10.937Z,24.65
2022-08-11T07:21:02.366Z,24.60
2022-08-11T07:23:55.120Z,24.74
2022-08-11T07:26:45.282Z,24.84
2022-08-11T07:29:14.834Z,24.85
2022-08-11T07:31:51.252Z,24.88
2022-08-11T07:34:35.670Z,24.88
2022-08-11T07:37:17.893Z,24.85
2022-08-11T07:39:48.530Z,24.91
2022-08-11T07:42:26.237Z,25.24
2022-08-11T07:45:14.400Z,25.39
2022-08-11T07:48:02.100Z,25.51
2022-08-11T07:50:54.183Z,25.62
2022-08-11T07:53:23.636Z,25.57
2022-08-11T07:55:53.655Z,25.64
2022-08-11T07:58:52.261Z,25.73
2022-08-11T08:01:43.291Z,25.60
2022-08-11T08:04:34.481Z,25.59
2022-08-11T08:07:23.114Z,25.83
2022-08-11T08:10:09.997Z,25.90
2022-08-11T08:13:00.909Z,26.04
2022-08-11T08:15:48.781Z,26.13
2022-08-11T08:18:27.017Z,26.17
2022-08-11T08:21:11.918Z,26.23
2022-08-11T08:23:53.928Z,26.15
2022-08-11T08:26:43.150Z,26.25
2022-08-11T08:29:38.760Z,26.51
2022-08-11T08:32:08.982Z,26.52
2022-08-11T08:34:40.246Z,26.59
2022-08-11T08:37:15.835Z,26.69
2022-08-11T08:39:58.532Z,26.58
2022-08-11T08:42:33.159Z,26.71
2022-08-11T08:45:15.718Z,26.81
2022-08-11T08:48:01.645Z,26.91
2022-08-11T08:50:56.690Z,26.82
2022-08-11T08:53:32.807Z,26.95
2022-08-11T08:56:02.193Z,27.03
2022-08-11T08:58:31.241Z,27.01
2022-08-11T09:01:00.938Z,27.14
2022-08-11T09:03:41.791Z,27.32
2022-08-11T09:06:17.565Z,27.44
2022-08-11T09:08:46.501Z,27.56
2022-08-11T09:11:36.733Z,27.62
2022-08-11T09:14:08.391Z,27.75
2022-08-11T09:16:39.470Z,28.00
2022-08-11T09:19:08.706Z,28.23
2022-08-11T09:21:48.810Z,28.22
2022-08-11T09:24:37.577Z,28.27
2022-08-11T09:27:08.624Z,28.19
2022-08-11T09:29:38.116Z,28.27
2022-08-11T09:32:07.089Z,28.32
2022-08-11T09:34:38.738Z,28.34
2022-08-11T09:37:54.649Z,28.50
2022-08-11T09:40:31.263Z,28.35
2022-08-11T09:43:22.342Z,28.03
2022-08-11T09:45:53.468Z,27.50
2022-08-11T09:48:24.810Z,27.36
2022-08-11T09:50:58.982Z,27.68
2022-08-11T09:53:35.778Z,27.62
2022-08-11T09:56:35.131Z,27.87
2022-08-11T09:59:05.808Z,28.12
2022-08-11T10:01:52.666Z,28.11
2022-08-11T10:04:46.146Z,28.15
2022-08-11T10:07:19.474Z,28.09
2022-08-11T10:10:02.030Z,28.03
2022-08-11T10:12:42.597Z,28.39
2022-08-11T10:15:33.145Z,27.96
2022-08-11T10:18:42.458Z,27.57
2022-08-11T10:21:28.172Z,27.76
2022-08-11T10:24:19.415Z,28.25
2022-08-11T10:26:56.677Z,28.44
2022-08-11T10:29:51.194Z,28.51
2022-08-11T10:32:58.968Z,28.62
2022-08-11T10:35:32.633Z,28.24
2022-08-11T10:38:06.059Z,28.71
2022-08-11T10:40:40.020Z,28.07
2022-08-11T10:44:01.247Z,28.12
2022-08-11T10:46:29.859Z,28.50
2022-08-11T10:49:00.019Z,28.77
2022-08-11T10:51:50.054Z,29.11
2022-08-11T10:54:37.488Z,29.36
2022-08-11T10:57:24.224Z,29.28
2022-08-11T10:59:52.236Z,29.31
2022-08-11T11:02:20.088Z,29.42
2022-08-11T11:05:13.178Z,29.37
2022-08-11T11:08:00.261Z,29.35
2022-08-11T11:10:27.732Z,29.47
2022-08-11T11:13:18.276Z,29.64
2022-08-11T11:16:06.645Z,29.74
2022-08-11T11:18:36.918Z,29.96
2022-08-11T11:21:13.102Z,30.03
2022-08-11T11:24:12.477Z,29.90
2022-08-11T11:26:58.919Z,30.12
2022-08-11T11:30:06.653Z,30.10
2022-08-11T11:33:19.318Z,30.21
2022-08-11T11:36:17.160Z,29.48
2022-08-11T11:38:45.465Z,29.98
2022-08-11T11:41:26.003Z,30.29
2022-08-11T11:43:57.257Z,30.46
2022-08-11T11:46:31.733Z,30.39
2022-08-11T11:49:13.985Z,30.72
2022-08-11T11:51:50.113Z,30.24
2022-08-11T11:54:36.656Z,30.02
2022-08-11T11:57:24.379Z,28.97
2022-08-11T12:00:12.106Z,29.23
2022-08-11T12:02:41.624Z,30.00
2022-08-11T12:05:11.316Z,30.38
2022-08-11T12:08:05.273Z,30.69
2022-08-11T12:11:19.468Z,31.02
2022-08-11T12:13:52.296Z,30.84
2022-08-11T12:16:32.825Z,30.52
2022-08-11T12:19:21.473Z,30.36
2022-08-11T12:22:08.101Z,30.42
2022-08-11T12:24:55.976Z,30.81
2022-08-11T12:27:25.429Z,31.07
2022-08-11T12:30:05.833Z,31.27
2022-08-11T12:32:38.206Z,31.26
2022-08-11T12:35:07.783Z,31.34
2022-08-11T12:37:52.587Z,31.40
2022-08-11T12:41:15.239Z,31.27
2022-08-11T12:43:56.899Z,30.80
2022-08-11T12:46:38.178Z,30.92
2022-08-11T12:49:45.190Z,31.29
2022-08-11T12:52:26.620Z,31.23
2022-08-11T12:55:13.694Z,31.61
2022-08-11T12:58:05.861Z,31.73
2022-08-11T13:00:52.034Z,31.65
2022-08-11T13:03:40.112Z,30.92
2022-08-11T13:06:08.694Z,30.60
2022-08-11T13:08:39.453Z,31.58
2022-08-11T13:11:55.757Z,32.10
2022-08-11T13:14:16.970Z,32.71
2022-08-11T13:17:04.390Z,32.66
2022-08-11T13:19:34.419Z,32.83
2022-08-11T13:22:05.091Z,32.96
2022-08-11T13:24:34.226Z,33.03
2022-08-11T13:27:03.025Z,33.01
2022-08-11T13:29:30.735Z,33.88
2022-08-11T13:32:01.956Z,33.55
2022-08-11T13:34:31.270Z,35.30
2022-08-11T13:37:02.504Z,36.32
2022-08-11T13:39:32.441Z,35.17
2022-08-11T13:42:03.858Z,35.66
2022-08-11T13:44:38.361Z,36.74
2022-08-11T13:47:12.137Z,37.52
2022-08-11T13:49:41.815Z,38.05
2022-08-11T13:52:17.609Z,37.99
2022-08-11T13:54:48.364Z,38.35
2022-08-11T13:58:18.289Z,38.16
2022-08-11T14:00:20.884Z,37.47
2022-08-11T14:02:57.226Z,37.30
2022-08-11T14:05:40.316Z,38.30
2022-08-11T14:08:38.259Z,37.40
2022-08-11T14:12:21.054Z,37.84
2022-08-11T14:14:33.314Z,38.90
2022-08-11T14:17:08.905Z,39.74
2022-08-11T14:19:41.438Z,39.68
2022-08-11T14:22:10.006Z,40.30
2022-08-11T14:24:44.098Z,39.39
2022-08-11T14:28:29.493Z,40.40
2022-08-11T14:30:00.800Z,39.97
2022-08-11T14:32:28.455Z,38.94
2022-08-11T14:34:56.828Z,38.23
2022-08-11T14:37:27.870Z,36.42
2022-08-11T14:40:03.775Z,39.12
2022-08-11T14:42:50.178Z,39.67
2022-08-11T14:45:54.177Z,39.84
2022-08-11T14:48:24.919Z,39.44
2022-08-11T14:50:53.008Z,39.52
2022-08-11T14:53:23.406Z,41.21
2022-08-11T14:56:12.599Z,40.24
2022-08-11T14:58:40.373Z,41.60
2022-08-11T15:01:27.975Z,41.45
2022-08-11T15:04:34.178Z,40.75
2022-08-11T15:06:47.349Z,40.57
2022-08-11T15:09:15.860Z,41.08
2022-08-11T15:12:04.393Z,40.97
2022-08-11T15:14:50.322Z,40.63
2022-08-11T15:17:24.298Z,40.71
2022-08-11T15:20:29.000Z,40.65
2022-08-11T15:23:15.748Z,40.02
2022-08-11T15:25:51.862Z,39.79
2022-08-11T15:28:40.325Z,40.77
2022-08-11T15:31:26.498Z,41.36
2022-08-11T15:34:21.649Z,41.39
2022-08-11T15:37:14.281Z,42.02
2022-08-11T15:40:31.212Z,41.96
2022-08-11T15:43:38.929Z,40.95
2022-08-11T15:46:21.156Z,39.92
2022-08-11T15:49:00.102Z,40.02
2022-08-11T15:51:41.192Z,40.20
2022-08-11T15:54:15.723Z,40.79
2022-08-11T15:56:48.669Z,41.93
2022-08-11T15:59:42.296Z,41.03
2022-08-11T16:02:32.208Z,40.24
2022-08-11T16:05:04.258Z,39.37
2022-08-11T16:07:39.813Z,40.39
2022-08-11T16:10:21.450Z,40.18
2022-08-11T16:13:06.236Z,40.53
2022-08-11T16:15:58.782Z,40.63
2022-08-11T16:18:42.969Z,41.61
2022-08-11T16:21:34.955Z,40.66
2022-08-11T16:24:09.113Z,40.26
2022-08-11T16:27:10.235Z,40.60
2022-08-11T16:29:46.498Z,38.99
2022-08-11T16:32:23.104Z,39.65
2022-08-11T16:35:26.492Z,39.89
2022-08-11T16:38:14.046Z,39.63
2022-08-11T16:40:43.869Z,40.10
2022-08-11T16:43:36.736Z,38.95
2022-08-11T16:46:26.393Z,39.65
2022-08-11T16:48:55.770Z,39.86
2022-08-11T16:51:23.591Z,40.64
2022-08-11T16:54:03.860Z,39.38
2022-08-11T16:56:54.120Z,37.10
2022-08-11T16:59:37.230Z,37.93
2022-08-11T17:02:34.734Z,38.87
2022-08-11T17:05:54.671Z,38.50
2022-08-11T17:09:11.300Z,37.27
2022-08-11T17:12:11.732Z,37.23
2022-08-11T17:14:49.525Z,37.56
2022-08-11T17:17:34.456Z,38.17
2022-08-11T17:20:40.370Z,37.00
2022-08-11T17:23:16.807Z,37.81
2022-08-11T17:25:59.399Z,37.03
2022-08-11T17:28:34.464Z,34.66
2022-08-11T17:31:22.981Z,33.40
2022-08-11T17:34:11.323Z,32.81
2022-08-11T17:36:45.092Z,32.60
2022-08-11T17:39:14.498Z,32.42
2022-08-11T17:42:02.821Z,32.39
2022-08-11T17:44:51.829Z,31.74
2022-08-11T17:47:39.527Z,31.24
2022-08-11T17:50:17.221Z,30.99
2022-08-11T17:53:06.637Z,30.71
2022-08-11T17:55:57.861Z,30.63
2022-08-11T17:58:46.176Z,30.34
2022-08-11T18:01:15.732Z,30.27
2022-08-11T18:03:54.571Z,30.15
2022-08-11T18:06:34.077Z,30.12
2022-08-11T18:09:27.180Z,30.09
2022-08-11T18:12:15.079Z,29.97
2022-08-11T18:15:07.245Z,29.74
2022-08-11T18:17:55.912Z,29.58
2022-08-11T18:20:44.056Z,29.39
2022-08-11T18:23:46.017Z,29.26
2022-08-11T18:26:38.833Z,29.12
2022-08-11T18:29:27.339Z,28.95
2022-08-11T18:32:20.975Z,28.86
2022-08-11T18:35:11.469Z,28.74
2022-08-11T18:38:06.238Z,28.50
2022-08-11T18:40:54.742Z,28.46
2022-08-11T18:43:43.411Z,28.40
2022-08-11T18:46:32.119Z,28.33
2022-08-11T18:49:34.266Z,28.25
2022-08-11T18:52:35.883Z,28.20
2022-08-11T18:55:28.562Z,28.09
2022-08-11T18:58:16.551Z,28.01
2022-08-11T19:01:05.560Z,27.96
2022-08-11T19:03:54.553Z,27.97
2022-08-11T19:06:51.617Z,27.93
2022-08-11T19:09:38.714Z,27.84
2022-08-11T19:12:28.294Z,27.81
2022-08-11T19:15:17.650Z,27.74
2022-08-11T19:18:05.242Z,27.71
2022-08-11T19:20:53.621Z,27.62
2022-08-11T19:23:53.786Z,27.61
2022-08-11T19:26:41.322Z,27.57
2022-08-11T19:30:06.942Z,27.59
2022-08-11T19:32:35.613Z,27.58
2022-08-11T19:35:23.626Z,27.51
2022-08-11T19:38:11.110Z,27.42
2022-08-11T19:40:58.725Z,27.26
2022-08-11T19:43:47.863Z,27.08
2022-08-11T19:46:37.120Z,26.94
2022-08-11T19:49:24.131Z,26.79
2022-08-11T19:52:10.517Z,26.64
2022-08-11T19:54:59.474Z,26.60
2022-08-11T19:57:46.853Z,26.59
2022-08-11T20:00:40.553Z,26.59
2022-08-11T20:03:30.735Z,26.56
2022-08-11T20:06:22.571Z,26.51
2022-08-11T20:09:14.126Z,26.50
2022-08-11T20:12:06.964Z,26.35
2022-08-11T20:14:58.897Z,26.22
2022-08-11T20:17:52.126Z,26.25
2022-08-11T20:20:42.032Z,26.35
2022-08-11T20:23:31.638Z,26.40
2022-08-11T20:26:30.831Z,26.47
2022-08-11T20:29:19.273Z,26.45
2022-08-11T20:32:06.610Z,26.35
2022-08-11T20:34:58.612Z,26.29
2022-08-11T20:37:50.383Z,26.22
2022-08-11T20:40:43.575Z,26.15
2022-08-11T20:44:07.795Z,26.10
2022-08-11T20:46:45.444Z,26.08
2022-08-11T20:49:45.960Z,26.05
2022-08-11T20:52:47.153Z,26.03
2022-08-11T20:55:51.573Z,25.98
2022-08-11T21:01:51.247Z,25.77
2022-08-11T21:07:58.925Z,25.72
2022-08-11T21:10:51.728Z,25.71
2022-08-11T21:13:46.126Z,25.59
2022-08-11T21:16:39.701Z,25.47
2022-08-11T21:19:56.356Z,25.45
2022-08-11T21:23:25.043Z,25.45
2022-08-11T21:26:25.992Z,25.45
2022-08-11T21:29:18.206Z,25.46
2022-08-11T21:32:06.416Z,25.47
2022-08-11T21:34:54.333Z,25.51
2022-08-11T21:37:41.585Z,25.51
2022-08-11T21:40:30.218Z,25.59
2022-08-11T21:43:18.407Z,25.66
2022-08-11T21:46:06.993Z,25.69
2022-08-11T21:48:55.683Z,25.65
2022-08-11T21:51:44.668Z,25.55
2022-08-11T21:54:31.169Z,25.56
2022-08-11T21:57:18.030Z,25.47
2022-08-11T22:00:16.667Z,25.43
2022-08-11T22:03:05.469Z,25.47
2022-08-11T22:05:53.033Z,25.46
2022-08-11T22:08:40.057Z,25.45
2022-08-11T22:11:32.168Z,25.37
2022-08-11T22:14:20.126Z,25.25
2022-08-11T22:17:06.302Z,25.13
2022-08-11T22:19:55.732Z,25.07
2022-08-11T22:22:52.145Z,24.99
2022-08-11T22:25:51.428Z,24.94
2022-08-11T22:28:40.262Z,24.88
2022-08-11T22:31:29.279Z,24.79
2022-08-11T22:34:15.402Z,24.70
2022-08-11T22:37:03.990Z,24.71
2022-08-11T22:40:01.761Z,24.67
2022-08-11T22:42:51.732Z,24.73
2022-08-11T22:45:39.076Z,24.70
2022-08-11T22:48:26.461Z,24.69
2022-08-11T22:51:14.519Z,24.64
2022-08-11T22:54:01.722Z,24.55
2022-08-11T22:56:50.948Z,24.49
2022-08-11T22:59:39.400Z,24.47
2022-08-11T23:02:26.465Z,24.45
2022-08-11T23:05:14.090Z,24.40
2022-08-11T23:08:00.791Z,24.48
2022-08-11T23:10:46.937Z,24.61
2022-08-11T23:13:32.996Z,24.60
2022-08-11T23:16:19.845Z,24.69
2022-08-11T23:19:07.062Z,24.74
2022-08-11T23:21:54.840Z,24.76
2022-08-11T23:24:43.868Z,24.73
2022-08-11T23:27:30.305Z,24.70
2022-08-11T23:30:19.197Z,24.73
2022-08-11T23:33:11.393Z,24.74
2022-08-11T23:36:05.493Z,24.75
2022-08-11T23:38:52.259Z,24.76
2022-08-11T23:41:39.241Z,24.80
2022-08-11T23:44:27.299Z,24.76
2022-08-11T23:47:18.226Z,24.74
2022-08-11T23:50:06.763Z,24.79
2022-08-11T23:52:54.416Z,24.81
2022-08-11T23:55:40.273Z,24.82
2022-08-11T23:58:26.830Z,24.82
